Time,TemperatureF,DewpointF,PressureIn,WindDirection,WindDirectionDegrees,WindSpeedMPH,WindSpeedGustMPH,Humidity,HourlyPrecipIn,Conditions,Clouds,dailyrainin,SoftwareType,DateUTC
2013-01-30 00:03:00,70.2,65.1,28.47,NW,315,6.2,6.2,84,0.00,CLR,CLR,0.00,WeatherDisplay:10.37,2013-01-30 06:03:00,
2013-01-30 00:08:00,70.5,65.4,28.47,NW,315,8.1,0.0,84,0.00,CLR,CLR,0.00,WeatherDisplay:10.37,2013-01-30 06:08:00,
2013-01-30 00:13:00,70.7,65.6,28.47,WNW,292,9.2,9.2,84,0.00,CLR,CLR,0.00,WeatherDisplay:10.37,2013-01-30 06:13:00,
2013-01-30 00:18:00,70.9,65.8,28.50,WNW,292,10.5,10.5,84,0.00,CLR,CLR,0.00,WeatherDisplay:10.37,2013-01-30 06:18:00,
2013-01-30 00:23:00,71.2,66.2,28.50,NW,315,8.1,8.1,84,0.00,CLR,CLR,0.00,WeatherDisplay:10.37,2013-01-30 06:23:00,
2013-01-30 00:29:00,71.4,66.3,28.50,NW,315,8.1,8.1,84,0.00,CLR,CLR,0.00,WeatherDisplay:10.37,2013-01-30 06:29:00,
2013-01-30 00:34:00,71.6,66.5,28.50,NW,315,10.4,10.4,84,0.00,CLR,CLR,0.00,WeatherDisplay:10.37,2013-01-30 06:34:00,
2013-01-30 00:39:00,71.8,66.7,28.50,NW,315,15.0,15.0,84,0.00,CLR,CLR,0.00,WeatherDisplay:10.37,2013-01-30 06:39:00,
2013-01-30 00:44:00,71.8,66.7,28.50,WNW,292,11.5,11.5,84,0.00,CLR,CLR,0.00,WeatherDisplay:10.37,2013-01-30 06:44:00,
2013-01-30 00:49:00,71.8,66.7,28.50,NW,315,12.7,12.7,84,0.00,CLR,CLR,0.00,WeatherDisplay:10.37,2013-01-30 06:49:00,
2013-01-30 00:54:00,71.8,66.7,28.50,NW,315,11.5,11.5,84,0.00,CLR,CLR,0.00,WeatherDisplay:10.37,2013-01-30 06:54:00,
2013-01-30 00:59:00,71.8,66.7,28.47,WNW,292,12.3,12.3,84,0.00,CLR,CLR,0.00,WeatherDisplay:10.37,2013-01-30 06:59:00,
2013-01-30 01:04:00,71.8,66.7,28.47,NW,315,8.1,8.1,84,0.00,CLR,CLR,0.00,WeatherDisplay:10.37,2013-01-30 07:04:00,
2013-01-30 01:09:00,71.8,66.7,28.47,NW,315,10.5,10.5,84,0.00,CLR,CLR,0.00,WeatherDisplay:10.37,2013-01-30 07:09:00,
2013-01-30 01:14:00,71.6,66.5,28.47,NW,315,9.7,9.7,84,0.00,CLR,CLR,0.00,WeatherDisplay:10.37,2013-01-30 07:14:00,
2013-01-30 01:19:00,71.4,66.3,28.50,NW,315,9.7,9.7,84,0.00,CLR,CLR,0.00,WeatherDisplay:10.37,2013-01-30 07:19:00,
2013-01-30 01:24:00,71.1,66.0,28.50,NW,315,12.7,12.7,84,0.00,CLR,CLR,0.00,WeatherDisplay:10.37,2013-01-30 07:24:00,
2013-01-30 01:29:00,70.9,65.8,28.50,NW,315,8.1,8.1,84,0.00,CLR,CLR,0.00,WeatherDisplay:10.37,2013-01-30 07:29:00,
2013-01-30 01:34:00,70.7,65.6,28.50,WSW,248,8.3,8.3,84,0.00,CLR,CLR,0.00,WeatherDisplay:10.37,2013-01-30 07:34:00,
2013-01-30 01:39:00,70.2,65.1,28.50,NW,315,8.3,8.3,84,0.00,CLR,CLR,0.00,WeatherDisplay:10.37,2013-01-30 07:39:00,
2013-01-30 01:44:00,70.2,65.1,28.50,NW,315,8.7,8.7,84,0.00,CLR,CLR,0.00,WeatherDisplay:10.37,2013-01-30 07:44:00,
2013-01-30 01:49:00,69.4,64.4,28.50,NW,315,15.0,15.0,84,0.00,CLR,CLR,0.00,WeatherDisplay:10.37,2013-01-30 07:49:00,
2013-01-30 01:54:00,69.3,64.6,28.50,NW,315,9.2,9.2,85,0.00,CLR,CLR,0.00,WeatherDisplay:10.37,2013-01-30 07:54:00,
2013-01-30 01:59:00,68.9,64.2,28.50,NW,315,9.2,9.2,85,0.00,CLR,CLR,0.00,WeatherDisplay:10.37,2013-01-30 07:59:00,
2013-01-30 02:04:00,68.5,63.8,28.53,WNW,292,9.2,9.2,85,0.00,CLR,CLR,0.00,WeatherDisplay:10.37,2013-01-30 08:04:00,
2013-01-30 02:09:00,68.0,63.3,28.53,NW,315,11.5,11.5,85,0.00,CLR,CLR,0.00,WeatherDisplay:10.37,2013-01-30 08:09:00,
2013-01-30 02:14:00,67.5,62.8,28.53,NW,315,8.3,8.3,85,0.00,CLR,CLR,0.00,WeatherDisplay:10.37,2013-01-30 08:14:00,
2013-01-30 02:19:00,66.9,62.3,28.53,NW,315,15.0,15.0,85,0.00,CLR,CLR,0.00,WeatherDisplay:10.37,2013-01-30 08:19:00,
2013-01-30 02:24:00,66.7,62.1,28.53,West,270,9.2,9.2,85,0.00,CLR,CLR,0.00,WeatherDisplay:10.37,2013-01-30 08:24:00,
2013-01-30 02:29:00,66.4,61.7,28.53,NW,315,10.5,10.5,85,0.00,CLR,CLR,0.00,WeatherDisplay:10.37,2013-01-30 08:29:00,
2013-01-30 02:34:00,65.7,61.4,28.53,NW,315,7.6,7.6,86,0.00,CLR,CLR,0.00,WeatherDisplay:10.37,2013-01-30 08:34:00,
2013-01-30 02:39:00,65.1,60.8,28.53,NW,315,11.5,11.5,86,0.00,CLR,CLR,0.00,WeatherDisplay:10.37,2013-01-30 08:39:00,
2013-01-30 02:44:00,64.8,60.5,28.53,WNW,292,8.1,8.1,86,0.00,CLR,CLR,0.00,WeatherDisplay:10.37,2013-01-30 08:44:00,
2013-01-30 02:49:00,64.2,59.9,28.53,NW,315,8.1,8.1,86,0.00,CLR,CLR,0.00,WeatherDisplay:10.37,2013-01-30 08:49:00,
2013-01-30 02:54:00,63.7,59.4,28.53,NW,315,6.9,6.9,86,0.00,CLR,CLR,0.00,WeatherDisplay:10.37,2013-01-30 08:54:00,
2013-01-30 02:59:00,63.5,59.2,28.56,NW,315,11.5,11.5,86,0.00,CLR,CLR,0.00,WeatherDisplay:10.37,2013-01-30 08:59:00,
2013-01-30 03:04:00,63.0,58.7,28.56,NW,315,3.5,0.0,86,0.00,CLR,CLR,0.00,WeatherDisplay:10.37,2013-01-30 09:04:00,
2013-01-30 03:09:00,62.6,58.4,28.56,NW,315,5.4,5.4,86,0.00,CLR,CLR,0.00,WeatherDisplay:10.37,2013-01-30 09:09:00,
2013-01-30 03:14:00,62.2,58.3,28.56,NW,315,8.1,8.1,87,0.00,CLR,CLR,0.00,WeatherDisplay:10.37,2013-01-30 09:14:00,
2013-01-30 03:19:00,61.7,57.8,28.56,NW,315,7.1,7.1,87,0.00,CLR,CLR,0.00,WeatherDisplay:10.37,2013-01-30 09:19:00,
2013-01-30 03:24:00,61.2,57.3,28.56,NW,315,9.7,9.7,87,0.00,CLR,CLR,0.00,WeatherDisplay:10.37,2013-01-30 09:24:00,
2013-01-30 03:29:00,60.6,56.7,28.56,NW,315,13.8,13.8,87,0.00,CLR,CLR,0.00,WeatherDisplay:10.37,2013-01-30 09:29:00,
2013-01-30 03:34:00,60.1,56.2,28.56,WNW,292,12.7,12.7,87,0.00,CLR,CLR,0.00,WeatherDisplay:10.37,2013-01-30 09:34:00,
2013-01-30 03:39:00,59.7,55.8,28.56,NW,315,5.8,5.8,87,0.00,CLR,CLR,0.00,WeatherDisplay:10.37,2013-01-30 09:39:00,
2013-01-30 03:44:00,59.2,55.3,28.56,WNW,292,8.1,8.1,87,0.00,CLR,CLR,0.00,WeatherDisplay:10.37,2013-01-30 09:44:00,
2013-01-30 03:49:00,58.6,54.8,28.53,WNW,292,11.8,11.8,87,0.00,CLR,CLR,0.00,WeatherDisplay:10.37,2013-01-30 09:49:00,
2013-01-30 03:54:00,58.1,54.2,28.53,NW,315,8.3,8.3,87,0.00,CLR,CLR,0.00,WeatherDisplay:10.37,2013-01-30 09:54:00,
2013-01-30 03:59:00,57.7,53.9,28.56,West,270,8.1,8.1,87,0.00,CLR,CLR,0.00,WeatherDisplay:10.37,2013-01-30 09:59:00,
2013-01-30 04:04:00,57.2,53.4,28.56,WNW,292,11.5,11.5,87,0.00,CLR,CLR,0.00,WeatherDisplay:10.37,2013-01-30 10:04:00,
2013-01-30 04:09:00,56.5,53.0,28.56,NW,315,7.6,7.6,88,0.00,CLR,CLR,0.00,WeatherDisplay:10.37,2013-01-30 10:09:00,
2013-01-30 04:14:00,55.9,52.4,28.56,WNW,292,12.7,12.7,88,0.00,CLR,CLR,0.00,WeatherDisplay:10.37,2013-01-30 10:14:00,
2013-01-30 04:19:00,55.4,51.6,28.56,NW,315,9.7,9.7,87,0.00,CLR,CLR,0.00,WeatherDisplay:10.37,2013-01-30 10:19:00,
2013-01-30 04:24:00,55.0,51.5,28.56,WNW,292,8.3,8.3,88,0.00,CLR,CLR,0.00,WeatherDisplay:10.37,2013-01-30 10:24:00,
2013-01-30 04:29:00,54.5,51.0,28.56,WSW,248,4.9,4.9,88,0.00,CLR,CLR,0.00,WeatherDisplay:10.37,2013-01-30 10:29:00,
2013-01-30 04:34:00,54.1,50.7,28.56,NW,315,3.5,0.0,88,0.00,CLR,CLR,0.00,WeatherDisplay:10.37,2013-01-30 10:34:00,
2013-01-30 04:39:00,53.6,50.1,28.56,West,270,7.1,7.1,88,0.00,CLR,CLR,0.00,WeatherDisplay:10.37,2013-01-30 10:39:00,
2013-01-30 04:44:00,53.1,49.6,28.56,NW,315,11.8,11.8,88,0.00,CLR,CLR,0.00,WeatherDisplay:10.37,2013-01-30 10:44:00,
2013-01-30 04:49:00,52.7,49.2,28.56,WNW,292,16.3,16.3,88,0.00,CLR,CLR,0.00,WeatherDisplay:10.37,2013-01-30 10:49:00,
2013-01-30 04:54:00,51.8,48.4,28.56,WNW,292,12.8,12.8,88,0.00,CLR,CLR,0.00,WeatherDisplay:10.37,2013-01-30 10:54:00,
2013-01-30 04:59:00,51.1,47.6,28.56,NW,315,15.0,15.0,88,0.00,CLR,CLR,0.00,WeatherDisplay:10.37,2013-01-30 10:59:00,
2013-01-30 05:04:00,50.5,47.1,28.56,NW,315,8.3,8.3,88,0.00,CLR,CLR,0.00,WeatherDisplay:10.37,2013-01-30 11:04:00,
2013-01-30 05:09:00,49.8,46.4,28.56,NW,315,9.7,9.7,88,0.00,CLR,CLR,0.00,WeatherDisplay:10.37,2013-01-30 11:09:00,
2013-01-30 05:14:00,49.3,45.9,28.56,NNW,338,13.8,13.8,88,0.00,CLR,CLR,0.00,WeatherDisplay:10.37,2013-01-30 11:14:00,
2013-01-30 05:19:00,48.6,45.2,28.56,NW,315,9.7,9.7,88,0.00,CLR,CLR,0.00,WeatherDisplay:10.37,2013-01-30 11:19:00,
2013-01-30 05:24:00,47.7,44.3,28.56,WNW,292,15.0,15.0,88,0.00,CLR,CLR,0.00,WeatherDisplay:10.37,2013-01-30 11:24:00,
2013-01-30 05:29:00,46.9,43.6,28.56,NW,315,12.8,12.8,88,0.00,CLR,CLR,0.00,WeatherDisplay:10.37,2013-01-30 11:29:00,
2013-01-30 05:34:00,46.4,43.0,28.56,NW,315,13.2,13.2,88,0.00,CLR,CLR,0.00,WeatherDisplay:10.37,2013-01-30 11:34:00,
2013-01-30 05:39:00,46.4,43.0,28.56,West,270,8.3,8.3,88,0.00,CLR,CLR,0.00,WeatherDisplay:10.37,2013-01-30 11:39:00,
2013-01-30 05:44:00,46.0,42.7,28.56,WNW,292,13.8,13.8,88,0.00,CLR,CLR,0.00,WeatherDisplay:10.37,2013-01-30 11:44:00,
2013-01-30 05:49:00,45.3,42.0,28.56,WNW,292,11.5,11.5,88,0.00,CLR,CLR,0.00,WeatherDisplay:10.37,2013-01-30 11:49:00,
2013-01-30 05:55:00,44.2,40.9,28.56,NW,315,11.5,11.5,88,0.00,CLR,CLR,0.00,WeatherDisplay:10.37,2013-01-30 11:55:00,
2013-01-30 06:00:00,43.3,39.7,28.56,NW,315,12.7,12.7,87,0.00,CLR,CLR,0.00,WeatherDisplay:10.37,2013-01-30 12:00:00,
2013-01-30 06:05:00,42.3,39.0,28.56,WNW,292,10.4,10.4,88,0.00,CLR,CLR,0.00,WeatherDisplay:10.37,2013-01-30 12:05:00,
2013-01-30 06:10:00,41.7,38.4,28.56,NNW,338,0.0,0.0,88,0.00,CLR,CLR,0.00,WeatherDisplay:10.37,2013-01-30 12:10:00,
2013-01-30 06:15:00,40.5,37.2,28.58,NW,315,9.2,9.2,88,0.00,CLR,CLR,0.00,WeatherDisplay:10.37,2013-01-30 12:15:00,
2013-01-30 06:20:00,39.4,36.1,28.58,WNW,292,10.4,10.4,88,0.00,CLR,CLR,0.00,WeatherDisplay:10.37,2013-01-30 12:20:00,
2013-01-30 06:25:00,37.9,34.7,28.58,WNW,292,6.9,6.9,88,0.00,CLR,CLR,0.00,WeatherDisplay:10.37,2013-01-30 12:25:00,
2013-01-30 06:30:00,36.9,33.6,28.56,North,0,9.2,9.2,88,0.00,CLR,CLR,0.00,WeatherDisplay:10.37,2013-01-30 12:30:00,
2013-01-30 06:35:00,35.8,32.3,28.56,NW,315,0.0,0.0,87,0.00,CLR,CLR,0.00,WeatherDisplay:10.37,2013-01-30 12:35:00,
2013-01-30 06:40:00,34.3,30.9,28.56,NW,315,9.2,9.2,87,0.00,CLR,CLR,0.00,WeatherDisplay:10.37,2013-01-30 12:40:00,
2013-01-30 06:45:00,33.1,29.3,28.58,NW,315,13.2,13.2,86,0.00,CLR,CLR,0.00,WeatherDisplay:10.37,2013-01-30 12:45:00,
2013-01-30 06:50:00,31.3,27.3,28.58,WNW,292,10.4,0.0,85,0.00,CLR,CLR,0.00,WeatherDisplay:10.37,2013-01-30 12:50:00,
2013-01-30 06:55:00,30.2,25.9,28.58,WNW,292,0.0,0.0,84,0.00,CLR,CLR,0.00,WeatherDisplay:10.37,2013-01-30 12:55:00,
2013-01-30 07:00:00,28.9,24.4,28.58,WNW,292,4.6,4.6,83,0.00,CLR,CLR,0.00,WeatherDisplay:10.37,2013-01-30 13:00:00,
2013-01-30 07:05:00,27.9,23.1,28.58,NW,315,11.5,11.5,82,0.00,CLR,CLR,0.00,WeatherDisplay:10.37,2013-01-30 13:05:00,
2013-01-30 07:10:00,27.1,22.1,28.58,West,270,8.3,8.3,81,0.00,CLR,CLR,0.00,WeatherDisplay:10.37,2013-01-30 13:10:00,
2013-01-30 07:15:00,26.4,21.4,28.58,NW,315,11.5,11.5,81,0.00,CLR,CLR,0.00,WeatherDisplay:10.37,2013-01-30 13:15:00,
2013-01-30 07:20:00,26.1,20.7,28.58,WNW,292,6.2,0.0,80,0.00,CLR,CLR,0.00,WeatherDisplay:10.37,2013-01-30 13:20:00,
2013-01-30 07:25:00,25.3,19.7,28.58,NW,315,8.7,8.7,79,0.00,CLR,CLR,0.00,WeatherDisplay:10.37,2013-01-30 13:25:00,
2013-01-30 07:31:00,25.0,19.1,28.58,WNW,292,4.6,0.0,78,0.00,CLR,CLR,0.00,WeatherDisplay:10.37,2013-01-30 13:31:00,
2013-01-30 07:36:00,24.8,18.9,28.58,NW,315,13.8,13.8,78,0.00,CLR,CLR,0.00,WeatherDisplay:10.37,2013-01-30 13:36:00,
2013-01-30 07:41:00,24.8,18.9,28.58,NW,315,5.8,0.0,78,0.00,CLR,CLR,0.00,WeatherDisplay:10.37,2013-01-30 13:41:00,
2013-01-30 07:46:00,24.6,18.7,28.61,WNW,292,8.1,8.1,78,0.00,CLR,CLR,0.00,WeatherDisplay:10.37,2013-01-30 13:46:00,
2013-01-30 07:51:00,24.4,18.3,28.61,WNW,292,7.6,7.6,77,0.00,CLR,CLR,0.00,WeatherDisplay:10.37,2013-01-30 13:51:00,
2013-01-30 07:56:00,23.9,17.4,28.61,WNW,292,10.4,10.4,76,0.00,CLR,CLR,0.00,WeatherDisplay:10.37,2013-01-30 13:56:00,
2013-01-30 08:01:00,23.7,17.3,28.61,West,270,8.3,8.3,76,0.00,CLR,CLR,0.00,WeatherDisplay:10.37,2013-01-30 14:01:00,
2013-01-30 08:06:00,23.4,16.3,28.61,WNW,292,11.5,11.5,74,0.00,CLR,CLR,0.00,WeatherDisplay:10.37,2013-01-30 14:06:00,
2013-01-30 08:11:00,23.0,15.6,28.61,NW,315,12.7,12.7,73,0.00,CLR,CLR,0.00,WeatherDisplay:10.37,2013-01-30 14:11:00,
2013-01-30 08:16:00,22.8,14.8,28.61,WNW,292,12.7,12.7,71,0.00,CLR,CLR,0.00,WeatherDisplay:10.37,2013-01-30 14:16:00,
2013-01-30 08:21:00,22.8,13.5,28.61,WNW,292,8.1,8.1,67,0.00,CLR,CLR,0.00,WeatherDisplay:10.37,2013-01-30 14:21:00,
2013-01-30 08:26:00,22.6,11.9,28.61,NW,315,5.8,5.8,63,0.00,CLR,CLR,0.00,WeatherDisplay:10.37,2013-01-30 14:26:00,
2013-01-30 08:31:00,22.8,11.7,28.61,NW,315,11.8,11.8,62,0.00,CLR,CLR,0.00,WeatherDisplay:10.37,2013-01-30 14:31:00,
2013-01-30 08:36:00,22.6,11.2,28.61,NW,315,10.4,10.4,61,0.00,CLR,CLR,0.00,WeatherDisplay:10.37,2013-01-30 14:36:00,
2013-01-30 08:41:00,22.8,11.0,28.61,NW,315,9.2,9.2,60,0.00,CLR,CLR,0.00,WeatherDisplay:10.37,2013-01-30 14:41:00,
2013-01-30 08:46:00,22.8,10.6,28.61,WNW,292,8.1,8.1,59,0.00,CLR,CLR,0.00,WeatherDisplay:10.37,2013-01-30 14:46:00,
2013-01-30 08:51:00,22.8,10.6,28.61,NW,315,11.5,11.5,59,0.00,CLR,CLR,0.00,WeatherDisplay:10.37,2013-01-30 14:51:00,
2013-01-30 08:56:00,22.8,11.0,28.61,WNW,292,9.7,9.7,60,0.00,CLR,CLR,0.00,WeatherDisplay:10.37,2013-01-30 14:56:00,
2013-01-30 09:01:00,22.8,11.0,28.61,NW,315,10.5,10.5,60,0.00,CLR,CLR,0.00,WeatherDisplay:10.37,2013-01-30 15:01:00,
2013-01-30 09:06:00,22.8,11.7,28.61,WNW,292,11.5,11.5,62,0.00,CLR,CLR,0.00,WeatherDisplay:10.37,2013-01-30 15:06:00,
2013-01-30 09:11:00,23.0,12.3,28.61,WNW,292,8.1,8.1,63,0.00,CLR,CLR,0.00,WeatherDisplay:10.37,2013-01-30 15:11:00,
2013-01-30 09:16:00,23.2,12.8,28.64,NW,315,5.8,5.8,64,0.00,CLR,CLR,0.00,WeatherDisplay:10.37,2013-01-30 15:16:00,
2013-01-30 09:21:00,23.5,13.5,28.64,NW,315,3.5,0.0,65,0.00,CLR,CLR,0.00,WeatherDisplay:10.37,2013-01-30 15:21:00,
2013-01-30 09:26:00,23.7,14.0,28.64,West,270,9.2,9.2,66,0.00,CLR,CLR,0.00,WeatherDisplay:10.37,2013-01-30 15:26:00,
2013-01-30 09:31:00,23.9,14.5,28.64,WNW,292,13.8,13.8,67,0.00,CLR,CLR,0.00,WeatherDisplay:10.37,2013-01-30 15:31:00,
2013-01-30 09:36:00,23.9,14.2,28.64,NNW,338,8.1,8.1,66,0.00,CLR,CLR,0.00,WeatherDisplay:10.37,2013-01-30 15:36:00,
2013-01-30 09:41:00,23.4,12.2,28.64,NW,315,9.2,9.2,62,0.00,CLR,CLR,0.00,WeatherDisplay:10.37,2013-01-30 15:41:00,
2013-01-30 09:46:00,23.0,11.2,28.64,WNW,292,11.5,11.5,60,0.00,CLR,CLR,0.00,WeatherDisplay:10.37,2013-01-30 15:46:00,
2013-01-30 09:51:00,23.0,10.8,28.64,NW,315,10.5,10.5,59,0.00,CLR,CLR,0.00,WeatherDisplay:10.37,2013-01-30 15:51:00,
2013-01-30 09:56:00,22.8,10.2,28.64,NNW,338,8.3,8.3,58,0.00,CLR,CLR,0.00,WeatherDisplay:10.37,2013-01-30 15:56:00,
2013-01-30 10:01:00,22.6,10.1,28.64,NW,315,10.9,10.9,58,0.00,CLR,CLR,0.00,WeatherDisplay:10.37,2013-01-30 16:01:00,
2013-01-30 10:06:00,22.5,9.5,28.64,NNW,338,9.2,9.2,57,0.00,CLR,CLR,0.00,WeatherDisplay:10.37,2013-01-30 16:06:00,
2013-01-30 10:11:00,22.5,9.5,28.64,NW,315,8.1,8.1,57,0.00,CLR,CLR,0.00,WeatherDisplay:10.37,2013-01-30 16:11:00,
2013-01-30 10:16:00,22.6,9.3,28.64,NW,315,12.7,12.7,56,0.00,CLR,CLR,0.00,WeatherDisplay:10.37,2013-01-30 16:16:00,
2013-01-30 10:21:00,22.5,8.3,28.64,NW,315,8.3,8.3,54,0.00,CLR,CLR,0.00,WeatherDisplay:10.37,2013-01-30 16:21:00,
2013-01-30 10:26:00,22.5,7.9,28.64,WNW,292,9.2,9.2,53,0.00,CLR,CLR,0.00,WeatherDisplay:10.37,2013-01-30 16:26:00,
2013-01-30 10:31:00,22.3,7.3,28.64,NW,315,9.7,9.7,52,0.00,CLR,CLR,0.00,WeatherDisplay:10.37,2013-01-30 16:31:00,
2013-01-30 10:36:00,22.3,7.7,28.64,NNW,338,4.6,4.6,53,0.00,CLR,CLR,0.00,WeatherDisplay:10.37,2013-01-30 16:36:00,
2013-01-30 10:41:00,22.1,8.4,28.64,NW,315,5.8,0.0,55,0.00,CLR,CLR,0.00,WeatherDisplay:10.37,2013-01-30 16:41:00,
2013-01-30 10:47:00,22.5,9.5,28.67,NW,315,4.9,0.0,57,0.00,CLR,CLR,0.00,WeatherDisplay:10.37,2013-01-30 16:47:00,
2013-01-30 10:52:00,22.5,9.5,28.67,NW,315,4.6,4.6,57,0.00,CLR,CLR,0.00,WeatherDisplay:10.37,2013-01-30 16:52:00,
2013-01-30 10:57:00,22.6,9.7,28.67,NW,315,3.5,0.0,57,0.00,CLR,CLR,0.00,WeatherDisplay:10.37,2013-01-30 16:57:00,
2013-01-30 11:03:00,22.6,9.7,28.67,NW,315,4.9,4.9,57,0.00,CLR,CLR,0.00,WeatherDisplay:10.37,2013-01-30 17:03:00,
2013-01-30 11:08:00,22.8,10.2,28.67,WNW,292,4.6,0.0,58,0.00,CLR,CLR,0.00,WeatherDisplay:10.37,2013-01-30 17:08:00,
2013-01-30 11:13:00,22.5,9.5,28.67,WNW,292,7.1,7.1,57,0.00,CLR,CLR,0.00,WeatherDisplay:10.37,2013-01-30 17:13:00,
2013-01-30 11:18:00,22.5,8.3,28.67,NW,315,5.8,0.0,54,0.00,CLR,CLR,0.00,WeatherDisplay:10.37,2013-01-30 17:18:00,
2013-01-30 11:23:00,22.8,8.6,28.67,West,270,3.6,3.6,54,0.00,CLR,CLR,0.00,WeatherDisplay:10.37,2013-01-30 17:23:00,
2013-01-30 11:28:00,22.6,8.1,28.67,West,270,10.5,0.0,53,0.00,CLR,CLR,0.00,WeatherDisplay:10.37,2013-01-30 17:28:00,
2013-01-30 11:33:00,22.6,8.1,28.67,WNW,292,10.4,10.4,53,0.00,CLR,CLR,0.00,WeatherDisplay:10.37,2013-01-30 17:33:00,
2013-01-30 11:38:00,22.6,8.1,28.67,NW,315,10.4,10.4,53,0.00,CLR,CLR,0.00,WeatherDisplay:10.37,2013-01-30 17:38:00,
2013-01-30 11:43:00,22.8,7.8,28.67,WNW,292,5.9,5.9,52,0.00,CLR,CLR,0.00,WeatherDisplay:10.37,2013-01-30 17:43:00,
2013-01-30 11:48:00,22.8,7.4,28.67,NW,315,12.8,12.8,51,0.00,CLR,CLR,0.00,WeatherDisplay:10.37,2013-01-30 17:48:00,
2013-01-30 11:53:00,22.8,6.5,28.67,NW,315,10.5,10.5,49,0.00,CLR,CLR,0.00,WeatherDisplay:10.37,2013-01-30 17:53:00,
2013-01-30 11:58:00,23.0,6.7,28.67,WNW,292,8.3,8.3,49,0.00,CLR,CLR,0.00,WeatherDisplay:10.37,2013-01-30 17:58:00,
2013-01-30 12:03:00,23.5,7.6,28.67,WNW,292,4.9,4.9,50,0.00,CLR,CLR,0.00,WeatherDisplay:10.37,2013-01-30 18:03:00,
2013-01-30 12:08:00,23.5,7.6,28.67,WNW,292,7.6,7.6,50,0.00,CLR,CLR,0.00,WeatherDisplay:10.37,2013-01-30 18:08:00,
2013-01-30 12:13:00,23.4,7.0,28.67,WNW,292,15.0,15.0,49,0.00,CLR,CLR,0.00,WeatherDisplay:10.37,2013-01-30 18:13:00,
2013-01-30 12:18:00,23.2,6.4,28.67,NW,315,12.7,12.7,48,0.00,CLR,CLR,0.00,WeatherDisplay:10.37,2013-01-30 18:18:00,
2013-01-30 12:23:00,23.4,6.1,28.67,NW,315,6.9,6.9,47,0.00,CLR,CLR,0.00,WeatherDisplay:10.37,2013-01-30 18:23:00,
2013-01-30 12:29:00,23.5,5.8,28.67,WNW,292,5.8,5.8,46,0.00,CLR,CLR,0.00,WeatherDisplay:10.37,2013-01-30 18:29:00,
2013-01-30 12:34:00,23.2,5.9,28.67,WNW,292,9.2,9.2,47,0.00,CLR,CLR,0.00,WeatherDisplay:10.37,2013-01-30 18:34:00,
2013-01-30 12:39:00,23.0,6.7,28.67,NW,315,10.4,10.4,49,0.00,CLR,CLR,0.00,WeatherDisplay:10.37,2013-01-30 18:39:00,
2013-01-30 12:44:00,23.2,7.3,28.67,WNW,292,9.2,9.2,50,0.00,CLR,CLR,0.00,WeatherDisplay:10.37,2013-01-30 18:44:00,
2013-01-30 12:49:00,23.5,7.6,28.67,NW,315,0.0,0.0,50,0.00,CLR,CLR,0.00,WeatherDisplay:10.37,2013-01-30 18:49:00,
2013-01-30 12:54:00,23.4,6.1,28.67,NW,315,9.2,9.2,47,0.00,CLR,CLR,0.00,WeatherDisplay:10.37,2013-01-30 18:54:00,
2013-01-30 12:59:00,23.4,5.6,28.67,West,270,4.6,0.0,46,0.00,CLR,CLR,0.00,WeatherDisplay:10.37,2013-01-30 18:59:00,
2013-01-30 13:04:00,23.4,6.5,28.67,WNW,292,4.6,4.6,48,0.00,CLR,CLR,0.00,WeatherDisplay:10.37,2013-01-30 19:04:00,
2013-01-30 13:09:00,23.4,8.3,28.67,WSW,248,3.6,0.0,52,0.00,CLR,CLR,0.00,WeatherDisplay:10.37,2013-01-30 19:09:00,
2013-01-30 13:14:00,23.5,8.0,28.67,West,270,2.6,0.0,51,0.00,CLR,CLR,0.00,WeatherDisplay:10.37,2013-01-30 19:14:00,
2013-01-30 13:19:00,23.2,6.4,28.64,WNW,292,8.1,8.1,48,0.00,CLR,CLR,0.00,WeatherDisplay:10.37,2013-01-30 19:19:00,
2013-01-30 13:24:00,23.5,6.2,28.64,WSW,248,5.9,0.0,47,0.00,CLR,CLR,0.00,WeatherDisplay:10.37,2013-01-30 19:24:00,
2013-01-30 13:29:00,23.2,5.4,28.64,West,270,9.7,0.0,46,0.00,CLR,CLR,0.00,WeatherDisplay:10.37,2013-01-30 19:29:00,
2013-01-30 13:34:00,23.4,5.6,28.64,West,270,15.0,15.0,46,0.00,CLR,CLR,0.00,WeatherDisplay:10.37,2013-01-30 19:34:00,
2013-01-30 13:39:00,23.2,5.4,28.64,NW,315,7.1,7.1,46,0.00,CLR,CLR,0.00,WeatherDisplay:10.37,2013-01-30 19:39:00,
2013-01-30 13:44:00,23.2,5.4,28.64,WNW,292,3.5,3.5,46,0.00,CLR,CLR,0.00,WeatherDisplay:10.37,2013-01-30 19:44:00,
2013-01-30 13:49:00,23.2,5.4,28.64,West,270,5.8,5.8,46,0.00,CLR,CLR,0.00,WeatherDisplay:10.37,2013-01-30 19:49:00,
2013-01-30 13:54:00,23.2,6.4,28.64,WNW,292,9.2,9.2,48,0.00,CLR,CLR,0.00,WeatherDisplay:10.37,2013-01-30 19:54:00,
2013-01-30 13:59:00,23.2,6.4,28.64,NW,315,4.9,4.9,48,0.00,CLR,CLR,0.00,WeatherDisplay:10.37,2013-01-30 19:59:00,
2013-01-30 14:04:00,23.0,6.2,28.64,WNW,292,6.2,6.2,48,0.00,CLR,CLR,0.00,WeatherDisplay:10.37,2013-01-30 20:04:00,
2013-01-30 14:09:00,23.0,6.2,28.64,NW,315,7.6,7.6,48,0.00,CLR,CLR,0.00,WeatherDisplay:10.37,2013-01-30 20:09:00,
2013-01-30 14:14:00,23.2,6.4,28.64,West,270,6.2,6.2,48,0.00,CLR,CLR,0.00,WeatherDisplay:10.37,2013-01-30 20:14:00,
2013-01-30 14:19:00,23.0,5.7,28.64,NW,315,5.8,5.8,47,0.00,CLR,CLR,0.00,WeatherDisplay:10.37,2013-01-30 20:19:00,
2013-01-30 14:24:00,22.8,5.6,28.64,West,270,4.6,4.6,47,0.00,CLR,CLR,0.00,WeatherDisplay:10.37,2013-01-30 20:24:00,
2013-01-30 14:29:00,22.8,5.6,28.64,West,270,6.2,6.2,47,0.00,CLR,CLR,0.00,WeatherDisplay:10.37,2013-01-30 20:29:00,
2013-01-30 14:34:00,22.8,5.6,28.64,NW,315,5.9,5.9,47,0.00,CLR,CLR,0.00,WeatherDisplay:10.37,2013-01-30 20:34:00,
2013-01-30 14:39:00,22.6,4.9,28.64,NW,315,12.7,12.7,46,0.00,CLR,CLR,0.00,WeatherDisplay:10.37,2013-01-30 20:39:00,
2013-01-30 14:44:00,22.8,5.1,28.64,NW,315,6.9,6.9,46,0.00,CLR,CLR,0.00,WeatherDisplay:10.37,2013-01-30 20:44:00,
2013-01-30 14:49:00,23.0,5.3,28.64,WSW,248,0.0,0.0,46,0.00,CLR,CLR,0.00,WeatherDisplay:10.37,2013-01-30 20:49:00,
2013-01-30 14:54:00,23.2,4.9,28.64,West,270,5.9,5.9,45,0.00,CLR,CLR,0.00,WeatherDisplay:10.37,2013-01-30 20:54:00,
2013-01-30 14:59:00,23.0,4.8,28.64,WNW,292,5.8,5.8,45,0.00,CLR,CLR,0.00,WeatherDisplay:10.37,2013-01-30 20:59:00,
2013-01-30 15:04:00,23.0,5.3,28.64,West,270,10.5,0.0,46,0.00,CLR,CLR,0.00,WeatherDisplay:10.37,2013-01-30 21:04:00,
2013-01-30 15:09:00,23.0,4.8,28.64,NW,315,3.1,0.0,45,0.00,CLR,CLR,0.00,WeatherDisplay:10.37,2013-01-30 21:09:00,
2013-01-30 15:14:00,23.0,4.8,28.64,WSW,248,4.0,0.0,45,0.00,CLR,CLR,0.00,WeatherDisplay:10.37,2013-01-30 21:14:00,
2013-01-30 15:19:00,23.2,4.9,28.64,WSW,248,0.0,0.0,45,0.00,CLR,CLR,0.00,WeatherDisplay:10.37,2013-01-30 21:19:00,
2013-01-30 15:24:00,23.0,4.8,28.64,West,270,3.6,0.0,45,0.00,CLR,CLR,0.00,WeatherDisplay:10.37,2013-01-30 21:24:00,
2013-01-30 15:29:00,23.2,4.5,28.64,WNW,292,3.6,0.0,44,0.00,CLR,CLR,0.00,WeatherDisplay:10.37,2013-01-30 21:29:00,
2013-01-30 15:34:00,22.8,4.6,28.64,WNW,292,3.1,0.0,45,0.00,CLR,CLR,0.00,WeatherDisplay:10.37,2013-01-30 21:34:00,
2013-01-30 15:39:00,23.0,4.8,28.64,WNW,292,6.2,0.0,45,0.00,CLR,CLR,0.00,WeatherDisplay:10.37,2013-01-30 21:39:00,
2013-01-30 15:44:00,23.2,5.9,28.64,West,270,0.0,0.0,47,0.00,CLR,CLR,0.00,WeatherDisplay:10.37,2013-01-30 21:44:00,
2013-01-30 15:49:00,23.0,6.2,28.67,WSW,248,0.0,0.0,48,0.00,CLR,CLR,0.00,WeatherDisplay:10.37,2013-01-30 21:49:00,
2013-01-30 15:54:00,23.0,5.7,28.67,West,270,3.6,0.0,47,0.00,CLR,CLR,0.00,WeatherDisplay:10.37,2013-01-30 21:54:00,
2013-01-30 15:59:00,22.8,5.1,28.67,West,270,6.9,0.0,46,0.00,CLR,CLR,0.00,WeatherDisplay:10.37,2013-01-30 21:59:00,
2013-01-30 16:04:00,22.6,4.9,28.67,SW,225,0.0,0.0,46,0.00,CLR,CLR,0.00,WeatherDisplay:10.37,2013-01-30 22:04:00,
2013-01-30 16:09:00,22.8,5.6,28.67,WSW,248,0.0,0.0,47,0.00,CLR,CLR,0.00,WeatherDisplay:10.37,2013-01-30 22:09:00,
2013-01-30 16:14:00,22.8,5.6,28.67,West,270,0.0,0.0,47,0.00,CLR,CLR,0.00,WeatherDisplay:10.37,2013-01-30 22:14:00,
2013-01-30 16:19:00,22.8,5.6,28.67,WSW,248,0.0,0.0,47,0.00,CLR,CLR,0.00,WeatherDisplay:10.37,2013-01-30 22:19:00,
2013-01-30 16:24:00,22.6,4.9,28.67,WNW,292,0.0,0.0,46,0.00,CLR,CLR,0.00,WeatherDisplay:10.37,2013-01-30 22:24:00,
2013-01-30 16:29:00,22.6,4.9,28.67,West,270,0.0,0.0,46,0.00,CLR,CLR,0.00,WeatherDisplay:10.37,2013-01-30 22:29:00,
2013-01-30 16:34:00,22.8,5.6,28.67,WNW,292,0.0,0.0,47,0.00,CLR,CLR,0.00,WeatherDisplay:10.37,2013-01-30 22:34:00,
2013-01-30 16:39:00,22.8,5.6,28.67,West,270,0.0,0.0,47,0.00,CLR,CLR,0.00,WeatherDisplay:10.37,2013-01-30 22:39:00,
2013-01-30 16:44:00,22.8,5.6,28.67,WNW,292,0.0,0.0,47,0.00,CLR,CLR,0.00,WeatherDisplay:10.37,2013-01-30 22:44:00,
2013-01-30 16:49:00,22.8,5.6,28.67,WNW,292,2.3,0.0,47,0.00,CLR,CLR,0.00,WeatherDisplay:10.37,2013-01-30 22:49:00,
2013-01-30 16:54:00,22.8,5.6,28.67,WNW,292,0.0,0.0,47,0.00,CLR,CLR,0.00,WeatherDisplay:10.37,2013-01-30 22:54:00,
2013-01-30 17:00:00,22.8,5.6,28.67,West,270,0.0,0.0,47,0.00,CLR,CLR,0.00,WeatherDisplay:10.37,2013-01-30 23:00:00,
2013-01-30 17:05:00,22.6,5.4,28.67,WNW,292,0.0,0.0,47,0.00,CLR,CLR,0.00,WeatherDisplay:10.37,2013-01-30 23:05:00,
2013-01-30 17:10:00,22.8,5.6,28.67,WSW,248,0.0,0.0,47,0.00,CLR,CLR,0.00,WeatherDisplay:10.37,2013-01-30 23:10:00,
2013-01-30 17:15:00,22.8,5.6,28.67,WSW,248,0.0,0.0,47,0.00,CLR,CLR,0.00,WeatherDisplay:10.37,2013-01-30 23:15:00,
2013-01-30 17:20:00,22.6,5.4,28.67,WSW,248,0.0,0.0,47,0.00,CLR,CLR,0.00,WeatherDisplay:10.37,2013-01-30 23:20:00,
2013-01-30 17:25:00,22.3,5.1,28.67,WSW,248,0.0,0.0,47,0.00,CLR,CLR,0.00,WeatherDisplay:10.37,2013-01-30 23:25:00,
2013-01-30 17:30:00,21.9,4.7,28.70,SW,225,0.0,0.0,47,0.00,CLR,CLR,0.00,WeatherDisplay:10.37,2013-01-30 23:30:00,
2013-01-30 17:35:00,21.9,5.2,28.70,SW,225,0.0,0.0,48,0.00,CLR,CLR,0.00,WeatherDisplay:10.37,2013-01-30 23:35:00,
2013-01-30 17:40:00,21.7,5.0,28.70,SW,225,0.0,0.0,48,0.00,CLR,CLR,0.00,WeatherDisplay:10.37,2013-01-30 23:40:00,
2013-01-30 17:45:00,21.4,5.2,28.67,SW,225,0.0,0.0,49,0.00,CLR,CLR,0.00,WeatherDisplay:10.37,2013-01-30 23:45:00,
2013-01-30 17:50:00,21.2,5.9,28.67,SW,225,0.0,0.0,51,0.00,CLR,CLR,0.00,WeatherDisplay:10.37,2013-01-30 23:50:00,
2013-01-30 17:55:00,21.0,6.1,28.67,SW,225,0.0,0.0,52,0.00,CLR,CLR,0.00,WeatherDisplay:10.37,2013-01-30 23:55:00,
2013-01-30 18:00:00,20.8,6.4,28.67,SW,225,0.0,0.0,53,0.00,CLR,CLR,0.00,WeatherDisplay:10.37,2013-01-31 00:00:00,
2013-01-30 18:05:00,20.7,6.2,28.67,SW,225,0.0,0.0,53,0.00,CLR,CLR,0.00,WeatherDisplay:10.37,2013-01-31 00:05:00,
2013-01-30 18:10:00,20.5,6.0,28.67,SW,225,0.0,0.0,53,0.00,CLR,CLR,0.00,WeatherDisplay:10.37,2013-01-31 00:10:00,
2013-01-30 18:15:00,20.1,6.1,28.67,SW,225,0.0,0.0,54,0.00,CLR,CLR,0.00,WeatherDisplay:10.37,2013-01-31 00:15:00,
2013-01-30 18:20:00,19.9,6.3,28.67,SW,225,0.0,0.0,55,0.00,CLR,CLR,0.00,WeatherDisplay:10.37,2013-01-31 00:20:00,
2013-01-30 18:25:00,19.8,6.6,28.67,SW,225,0.0,0.0,56,0.00,CLR,CLR,0.00,WeatherDisplay:10.37,2013-01-31 00:25:00,
2013-01-30 18:30:00,19.8,6.6,28.67,SW,225,0.0,0.0,56,0.00,CLR,CLR,0.00,WeatherDisplay:10.37,2013-01-31 00:30:00,
2013-01-30 18:35:00,19.9,7.1,28.67,SW,225,0.0,0.0,57,0.00,CLR,CLR,0.00,WeatherDisplay:10.37,2013-01-31 00:35:00,
2013-01-30 18:40:00,19.8,7.0,28.67,SW,225,0.0,0.0,57,0.00,CLR,CLR,0.00,WeatherDisplay:10.37,2013-01-31 00:40:00,
2013-01-30 18:45:00,19.8,7.0,28.67,SW,225,0.0,0.0,57,0.00,CLR,CLR,0.00,WeatherDisplay:10.37,2013-01-31 00:45:00,
2013-01-30 18:50:00,19.6,7.2,28.67,SW,225,0.0,0.0,58,0.00,CLR,CLR,0.00,WeatherDisplay:10.37,2013-01-31 00:50:00,
2013-01-30 18:55:00,19.4,7.4,28.67,SW,225,0.0,0.0,59,0.00,CLR,CLR,0.00,WeatherDisplay:10.37,2013-01-31 00:55:00,
2013-01-30 19:00:00,19.4,7.4,28.67,SW,225,0.0,0.0,59,0.00,CLR,CLR,0.00,WeatherDisplay:10.37,2013-01-31 01:00:00,
2013-01-30 19:05:00,19.6,7.6,28.67,SW,225,0.0,0.0,59,0.00,CLR,CLR,0.00,WeatherDisplay:10.37,2013-01-31 01:05:00,
2013-01-30 19:10:00,19.4,7.8,28.67,SW,225,0.0,0.0,60,0.00,CLR,CLR,0.00,WeatherDisplay:10.37,2013-01-31 01:10:00,
2013-01-30 19:15:00,19.2,7.6,28.67,SW,225,0.0,0.0,60,0.00,CLR,CLR,0.00,WeatherDisplay:10.37,2013-01-31 01:15:00,
2013-01-30 19:20:00,19.2,8.0,28.67,SW,225,0.0,0.0,61,0.00,CLR,CLR,0.00,WeatherDisplay:10.37,2013-01-31 01:20:00,
2013-01-30 19:25:00,19.2,8.0,28.67,SW,225,0.0,0.0,61,0.00,CLR,CLR,0.00,WeatherDisplay:10.37,2013-01-31 01:25:00,
2013-01-30 19:30:00,19.2,8.0,28.67,SW,225,0.0,0.0,61,0.00,CLR,CLR,0.00,WeatherDisplay:10.37,2013-01-31 01:30:00,
2013-01-30 19:36:00,18.9,8.0,28.67,SW,225,0.0,0.0,62,0.00,CLR,CLR,0.00,WeatherDisplay:10.37,2013-01-31 01:36:00,
2013-01-30 19:41:00,18.7,7.8,28.67,SW,225,0.0,0.0,62,0.00,CLR,CLR,0.00,WeatherDisplay:10.37,2013-01-31 01:41:00,
2013-01-30 19:46:00,18.3,7.5,28.67,SW,225,0.0,0.0,62,0.00,CLR,CLR,0.00,WeatherDisplay:10.37,2013-01-31 01:46:00,
2013-01-30 19:51:00,17.8,7.3,28.67,SW,225,0.0,0.0,63,0.00,CLR,CLR,0.00,WeatherDisplay:10.37,2013-01-31 01:51:00,
2013-01-30 19:56:00,17.6,7.8,28.67,SW,225,0.0,0.0,65,0.00,CLR,CLR,0.00,WeatherDisplay:10.37,2013-01-31 01:56:00,
2013-01-30 20:01:00,17.8,8.0,28.67,SW,225,0.0,0.0,65,0.00,CLR,CLR,0.00,WeatherDisplay:10.37,2013-01-31 02:01:00,
2013-01-30 20:06:00,18.3,9.2,28.67,SW,225,0.0,0.0,67,0.00,CLR,CLR,0.00,WeatherDisplay:10.37,2013-01-31 02:06:00,
2013-01-30 20:11:00,18.3,9.2,28.67,SW,225,0.0,0.0,67,0.00,CLR,CLR,0.00,WeatherDisplay:10.37,2013-01-31 02:11:00,
2013-01-30 20:16:00,18.7,9.9,28.67,SW,225,0.0,0.0,68,0.00,CLR,CLR,0.00,WeatherDisplay:10.37,2013-01-31 02:16:00,
2013-01-30 20:21:00,18.7,9.9,28.67,SW,225,0.0,0.0,68,0.00,CLR,CLR,0.00,WeatherDisplay:10.37,2013-01-31 02:21:00,
2013-01-30 20:26:00,18.7,10.2,28.67,SW,225,0.0,0.0,69,0.00,CLR,CLR,0.00,WeatherDisplay:10.37,2013-01-31 02:26:00,
2013-01-30 20:31:00,19.0,10.5,28.67,SW,225,0.0,0.0,69,0.00,CLR,CLR,0.00,WeatherDisplay:10.37,2013-01-31 02:31:00,
2013-01-30 20:36:00,18.5,10.0,28.67,SW,225,0.0,0.0,69,0.00,CLR,CLR,0.00,WeatherDisplay:10.37,2013-01-31 02:36:00,
2013-01-30 20:41:00,18.5,10.0,28.67,SW,225,0.0,0.0,69,0.00,CLR,CLR,0.00,WeatherDisplay:10.37,2013-01-31 02:41:00,
2013-01-30 20:46:00,18.7,10.5,28.67,SW,225,0.0,0.0,70,0.00,CLR,CLR,0.00,WeatherDisplay:10.37,2013-01-31 02:46:00,
2013-01-30 20:51:00,18.7,10.5,28.67,SW,225,0.0,0.0,70,0.00,CLR,CLR,0.00,WeatherDisplay:10.37,2013-01-31 02:51:00,
2013-01-30 20:56:00,18.9,11.0,28.67,SW,225,0.0,0.0,71,0.00,CLR,CLR,0.00,WeatherDisplay:10.37,2013-01-31 02:56:00,
2013-01-30 21:01:00,18.7,10.8,28.67,SW,225,0.0,0.0,71,0.00,CLR,CLR,0.00,WeatherDisplay:10.37,2013-01-31 03:01:00,
2013-01-30 21:06:00,18.1,10.3,28.67,SW,225,0.0,0.0,71,0.00,CLR,CLR,0.00,WeatherDisplay:10.37,2013-01-31 03:06:00,
2013-01-30 21:11:00,17.8,10.0,28.67,SW,225,0.0,0.0,71,0.00,CLR,CLR,0.00,WeatherDisplay:10.37,2013-01-31 03:11:00,
2013-01-30 21:16:00,17.4,9.9,28.70,SW,225,0.0,0.0,72,0.00,CLR,CLR,0.00,WeatherDisplay:10.37,2013-01-31 03:16:00,
2013-01-30 21:21:00,17.1,9.6,28.70,SW,225,0.0,0.0,72,0.00,CLR,CLR,0.00,WeatherDisplay:10.37,2013-01-31 03:21:00,
2013-01-30 21:26:00,16.9,9.7,28.70,SW,225,0.0,0.0,73,0.00,CLR,CLR,0.00,WeatherDisplay:10.37,2013-01-31 03:26:00,
2013-01-30 21:31:00,16.9,9.7,28.70,SW,225,0.0,0.0,73,0.00,CLR,CLR,0.00,WeatherDisplay:10.37,2013-01-31 03:31:00,
2013-01-30 21:36:00,16.7,9.5,28.70,SW,225,0.0,0.0,73,0.00,CLR,CLR,0.00,WeatherDisplay:10.37,2013-01-31 03:36:00,
2013-01-30 21:41:00,16.5,9.7,28.70,SW,225,0.0,0.0,74,0.00,CLR,CLR,0.00,WeatherDisplay:10.37,2013-01-31 03:41:00,
2013-01-30 21:46:00,16.7,10.1,28.70,SW,225,0.0,0.0,75,0.00,CLR,CLR,0.00,WeatherDisplay:10.37,2013-01-31 03:46:00,
2013-01-30 21:51:00,16.7,10.1,28.70,SW,225,0.0,0.0,75,0.00,CLR,CLR,0.00,WeatherDisplay:10.37,2013-01-31 03:51:00,
2013-01-30 21:56:00,16.5,10.3,28.70,SW,225,0.0,0.0,76,0.00,CLR,CLR,0.00,WeatherDisplay:10.37,2013-01-31 03:56:00,
2013-01-30 22:01:00,16.3,10.1,28.70,SW,225,0.0,0.0,76,0.00,CLR,CLR,0.00,WeatherDisplay:10.37,2013-01-31 04:01:00,
2013-01-30 22:06:00,16.2,10.2,28.70,SW,225,0.0,0.0,77,0.00,CLR,CLR,0.00,WeatherDisplay:10.37,2013-01-31 04:06:00,
2013-01-30 22:11:00,16.2,10.2,28.70,SW,225,0.0,0.0,77,0.00,CLR,CLR,0.00,WeatherDisplay:10.37,2013-01-31 04:11:00,
2013-01-30 22:16:00,16.0,10.3,28.70,SW,225,0.0,0.0,78,0.00,CLR,CLR,0.00,WeatherDisplay:10.37,2013-01-31 04:16:00,
2013-01-30 22:21:00,16.2,10.5,28.70,SW,225,0.0,0.0,78,0.00,CLR,CLR,0.00,WeatherDisplay:10.37,2013-01-31 04:21:00,
2013-01-30 22:26:00,16.5,11.1,28.70,SW,225,0.0,0.0,79,0.00,CLR,CLR,0.00,WeatherDisplay:10.37,2013-01-31 04:26:00,
2013-01-30 22:31:00,16.9,11.8,28.73,SW,225,0.0,0.0,80,0.00,CLR,CLR,0.00,WeatherDisplay:10.37,2013-01-31 04:31:00,
2013-01-30 22:36:00,17.8,12.7,28.73,SW,225,0.0,0.0,80,0.00,CLR,CLR,0.00,WeatherDisplay:10.37,2013-01-31 04:36:00,
2013-01-30 22:41:00,19.0,14.2,28.73,SW,225,0.0,0.0,81,0.00,CLR,CLR,0.00,WeatherDisplay:10.37,2013-01-31 04:41:00,
2013-01-30 22:46:00,19.6,14.7,28.73,SW,225,0.0,0.0,81,0.00,CLR,CLR,0.00,WeatherDisplay:10.37,2013-01-31 04:46:00,
2013-01-30 22:51:00,20.1,15.2,28.73,SW,225,0.0,0.0,81,0.00,CLR,CLR,0.00,WeatherDisplay:10.37,2013-01-31 04:51:00,
2013-01-30 22:56:00,20.8,16.2,28.73,SW,225,0.0,0.0,82,0.00,CLR,CLR,0.00,WeatherDisplay:10.37,2013-01-31 04:56:00,
2013-01-30 23:00:00,21.6,16.9,28.73,SW,225,0.0,0.0,82,0.00,CLR,CLR,0.00,WeatherDisplay:10.37,2013-01-31 05:00:00,
2013-01-30 23:02:00,21.6,16.9,28.73,SW,225,0.0,0.0,82,0.00,CLR,CLR,0.00,WeatherDisplay:10.37,2013-01-31 05:02:00,
2013-01-30 23:04:00,22.1,17.4,28.73,SW,225,0.0,0.0,82,0.00,CLR,CLR,0.00,WeatherDisplay:10.37,2013-01-31 05:04:00,
2013-01-30 23:08:00,22.5,17.8,28.73,SW,225,0.0,0.0,82,0.00,CLR,CLR,0.00,WeatherDisplay:10.37,2013-01-31 05:08:00,
2013-01-30 23:13:00,23.0,18.3,28.73,SW,225,0.0,0.0,82,0.00,CLR,CLR,0.00,WeatherDisplay:10.37,2013-01-31 05:13:00,
2013-01-30 23:18:00,23.4,18.7,28.73,SW,225,0.0,0.0,82,0.00,CLR,CLR,0.00,WeatherDisplay:10.37,2013-01-31 05:18:00,
2013-01-30 23:23:00,23.5,18.9,28.73,SW,225,0.0,0.0,82,0.00,CLR,CLR,0.00,WeatherDisplay:10.37,2013-01-31 05:23:00,
2013-01-30 23:28:00,23.5,18.9,28.73,SW,225,0.0,0.0,82,0.00,CLR,CLR,0.00,WeatherDisplay:10.37,2013-01-31 05:28:00,
2013-01-30 23:33:00,23.5,18.9,28.73,SW,225,0.0,0.0,82,0.00,CLR,CLR,0.00,WeatherDisplay:10.37,2013-01-31 05:33:00,
2013-01-30 23:38:00,23.7,19.0,28.73,SW,225,0.0,0.0,82,0.00,CLR,CLR,0.00,WeatherDisplay:10.37,2013-01-31 05:38:00,
2013-01-30 23:43:00,23.7,18.7,28.73,SW,225,0.0,0.0,81,0.00,CLR,CLR,0.00,WeatherDisplay:10.37,2013-01-31 05:43:00,
2013-01-30 23:48:00,23.5,18.6,28.73,SW,225,0.0,0.0,81,0.00,CLR,CLR,0.00,WeatherDisplay:10.37,2013-01-31 05:48:00,
2013-01-30 23:53:00,23.5,18.6,28.73,SW,225,0.0,0.0,81,0.00,CLR,CLR,0.00,WeatherDisplay:10.37,2013-01-31 05:53:00,
2013-01-30 23:58:00,23.5,18.6,28.73,SW,225,0.0,0.0,81,0.00,CLR,CLR,0.00,WeatherDisplay:10.37,2013-01-31 05:58:00,